createdAt,value
2022-12-04T00:01:05.200Z,98008.75
2022-12-04T00:03:31.884Z,98011.47
2022-12-04T00:06:09.106Z,98006.44
2022-12-04T00:08:36.019Z,98002.91
2022-12-04T00:11:04.570Z,98012.03
2022-12-04T00:13:31.917Z,98007.75
2022-12-04T00:15:59.489Z,98011.19
2022-12-04T00:18:26.528Z,98005.59
2022-12-04T00:20:53.128Z,97999.94
2022-12-04T00:23:19.706Z,98005.25
2022-12-04T00:25:49.089Z,97997.22
2022-12-04T00:28:16.889Z,97991.25
2022-12-04T00:30:44.596Z,97995.91
2022-12-04T00:33:12.458Z,97993.38
2022-12-04T00:35:39.249Z,97989.44
2022-12-04T00:38:05.856Z,97990.81
2022-12-04T00:40:32.408Z,97987.84
2022-12-04T00:42:58.888Z,97987.56
2022-12-04T00:45:25.545Z,97990.81
2022-12-04T00:47:52.749Z,97986.03
2022-12-04T00:50:19.255Z,97982.66
2022-12-04T00:52:45.765Z,97994.28
2022-12-04T00:55:12.357Z,97994.94
2022-12-04T00:57:38.849Z,97987.38
2022-12-04T01:00:07.061Z,97983.28
2022-12-04T01:02:34.026Z,97987.91
2022-12-04T01:05:01.507Z,97989.81
2022-12-04T01:07:28.165Z,97979.88
2022-12-04T01:09:54.927Z,97979.63
2022-12-04T01:12:21.542Z,97981.44
2022-12-04T01:14:48.146Z,97985.97
2022-12-04T01:17:14.727Z,97978.75
2022-12-04T01:19:41.349Z,97978.06
2022-12-04T01:22:08.367Z,97974.06
2022-12-04T01:24:34.869Z,97971.53
2022-12-04T01:27:01.401Z,97969.72
2022-12-04T01:29:27.979Z,97977.25
2022-12-04T01:31:54.607Z,97970.38
2022-12-04T01:34:21.189Z,97977.81
2022-12-04T01:36:48.348Z,97975.06
2022-12-04T01:39:14.899Z,97972.66
2022-12-04T01:41:41.430Z,97972.72
2022-12-04T01:44:12.371Z,97972.81
2022-12-04T01:46:40.148Z,97968.28
2022-12-04T01:49:17.235Z,97970.94
2022-12-04T01:51:50.432Z,97971.84
2022-12-04T01:54:29.089Z,97974.63
2022-12-04T01:57:01.732Z,97970.13
2022-12-04T01:59:32.627Z,97972.13
2022-12-04T02:02:35.751Z,97965.72
2022-12-04T02:05:04.411Z,97980.38
2022-12-04T02:07:31.511Z,97985.22
2022-12-04T02:10:03.667Z,97981.31
2022-12-04T02:12:40.799Z,97979.50
2022-12-04T02:15:22.594Z,97972.41
2022-12-04T02:18:26.853Z,97972.72
2022-12-04T02:21:07.997Z,97967.63
2022-12-04T02:23:34.454Z,97965.63
2022-12-04T02:26:24.465Z,97961.28
2022-12-04T02:29:11.505Z,97958.09
2022-12-04T02:31:47.164Z,97947.56
2022-12-04T02:34:18.082Z,97949.97
2022-12-04T02:36:57.344Z,97950.22
2022-12-04T02:39:34.953Z,97945.38
2022-12-04T02:42:15.786Z,97953.19
2022-12-04T02:44:49.932Z,97951.41
2022-12-04T02:47:20.225Z,97952.72
2022-12-04T02:50:00.226Z,97953.03
2022-12-04T02:52:36.223Z,97944.31
2022-12-04T02:55:08.636Z,97947.72
2022-12-04T02:57:39.520Z,97952.56
2022-12-04T03:00:08.864Z,97939.88
2022-12-04T03:02:40.859Z,97941.63
2022-12-04T03:05:11.258Z,97941.44
2022-12-04T03:07:43.555Z,97938.16
2022-12-04T03:10:19.787Z,97944.00
2022-12-04T03:12:53.401Z,97935.44
2022-12-04T03:15:27.706Z,97929.53
2022-12-04T03:18:22.277Z,97939.06
2022-12-04T03:20:50.643Z,97926.72
2022-12-04T03:23:32.635Z,97921.53
2022-12-04T03:26:18.435Z,97921.63
2022-12-04T03:28:59.358Z,97923.22
2022-12-04T03:31:36.649Z,97925.09
2022-12-04T03:34:04.226Z,97923.31
2022-12-04T03:36:39.431Z,97916.16
2022-12-04T03:39:20.018Z,97914.84
2022-12-04T03:41:58.122Z,97920.34
2022-12-04T03:44:35.702Z,97910.44
2022-12-04T03:47:07.995Z,97908.66
2022-12-04T03:49:40.290Z,97912.09
2022-12-04T03:52:13.764Z,97909.94
2022-12-04T03:54:52.159Z,97915.91
2022-12-04T03:57:24.585Z,97915.91
2022-12-04T04:00:09.996Z,97915.72
2022-12-04T04:02:40.224Z,97922.75
2022-12-04T04:05:08.934Z,97918.78
2022-12-04T04:07:43.497Z,97916.72
2022-12-04T04:10:16.529Z,97920.78
2022-12-04T04:13:07.416Z,97935.09
2022-12-04T04:15:58.363Z,97936.41
2022-12-04T04:18:43.509Z,97937.03
2022-12-04T04:21:29.870Z,97941.16
2022-12-04T04:24:14.643Z,97948.41
2022-12-04T04:26:49.362Z,97950.84
2022-12-04T04:29:15.894Z,97948.50
2022-12-04T04:31:45.465Z,97950.50
2022-12-04T04:34:30.684Z,97947.72
2022-12-04T04:37:38.849Z,97947.72
2022-12-04T04:40:24.124Z,97948.41
2022-12-04T04:43:33.883Z,97948.19
2022-12-04T04:46:06.035Z,97950.22
2022-12-04T04:48:42.630Z,97946.59
2022-12-04T04:51:09.980Z,97941.00
2022-12-04T04:53:40.179Z,97941.66
2022-12-04T04:56:07.258Z,97943.97
2022-12-04T04:58:34.389Z,97942.84
2022-12-04T05:01:05.085Z,97933.94
2022-12-04T05:03:32.026Z,97953.00
2022-12-04T05:05:58.610Z,97958.56
2022-12-04T05:08:25.184Z,97953.16
2022-12-04T05:10:51.703Z,97957.56
2022-12-04T05:13:19.364Z,97952.25
2022-12-04T05:15:58.682Z,97949.50
2022-12-04T05:18:25.612Z,97948.06
2022-12-04T05:20:52.122Z,97944.88
2022-12-04T05:23:18.869Z,97948.22
2022-12-04T05:25:45.726Z,97948.88
2022-12-04T05:28:12.425Z,97948.34
2022-12-04T05:30:39.230Z,97940.03
2022-12-04T05:33:05.810Z,97938.91
2022-12-04T05:35:32.409Z,97940.53
2022-12-04T05:37:58.987Z,97943.63
2022-12-04T05:40:25.597Z,97937.06
2022-12-04T05:42:52.177Z,97942.31
2022-12-04T05:45:18.981Z,97937.38
2022-12-04T05:47:45.941Z,97936.16
2022-12-04T05:50:13.488Z,97931.97
2022-12-04T05:52:40.044Z,97935.22
2022-12-04T05:55:06.925Z,97932.63
2022-12-04T05:57:33.509Z,97929.69
2022-12-04T06:00:00.294Z,97943.19
2022-12-04T06:02:26.936Z,97938.69
2022-12-04T06:04:53.559Z,97937.78
2022-12-04T06:07:20.158Z,97938.69
2022-12-04T06:09:46.780Z,97942.38
2022-12-04T06:12:14.247Z,97943.00
2022-12-04T06:14:40.861Z,97944.63
2022-12-04T06:17:07.439Z,97943.97
2022-12-04T06:19:34.081Z,97938.00
2022-12-04T06:22:00.643Z,97928.91
2022-12-04T06:24:27.267Z,97932.69
2022-12-04T06:27:26.080Z,97933.09
2022-12-04T06:29:45.178Z,97933.09
2022-12-04T06:32:15.086Z,97935.00
2022-12-04T06:34:44.450Z,97933.09
2022-12-04T06:37:11.052Z,97931.91
2022-12-04T06:39:37.620Z,97925.50
2022-12-04T06:42:04.232Z,97934.03
2022-12-04T06:44:30.811Z,97933.09
2022-12-04T06:47:00.768Z,97935.25
2022-12-04T06:49:28.009Z,97928.59
2022-12-04T06:51:54.635Z,97927.34
2022-12-04T06:54:21.231Z,97938.81
2022-12-04T06:56:48.825Z,97937.13
2022-12-04T06:59:15.400Z,97939.78
2022-12-04T07:01:44.523Z,97937.28
2022-12-04T07:04:11.101Z,97933.94
2022-12-04T07:06:38.950Z,97938.22
2022-12-04T07:09:14.835Z,97942.91
2022-12-04T07:11:42.080Z,97945.28
2022-12-04T07:14:09.303Z,97947.84
2022-12-04T07:16:40.892Z,97939.75
2022-12-04T07:19:09.632Z,97949.16
2022-12-04T07:21:41.603Z,97949.91
2022-12-04T07:24:14.049Z,97941.44
2022-12-04T07:26:40.827Z,97951.13
2022-12-04T07:29:07.587Z,97940.50
2022-12-04T07:31:34.221Z,97936.34
2022-12-04T07:34:00.833Z,97939.47
2022-12-04T07:36:27.545Z,97941.19
2022-12-04T07:38:57.606Z,97947.75
2022-12-04T07:41:24.238Z,97933.13
2022-12-04T07:43:50.880Z,97935.44
2022-12-04T07:46:27.832Z,97942.16
2022-12-04T07:48:58.408Z,97935.38
2022-12-04T07:51:27.504Z,97941.59
2022-12-04T07:53:54.798Z,97954.16
2022-12-04T07:56:21.919Z,97955.94
2022-12-04T07:58:48.513Z,97947.56
2022-12-04T08:01:20.750Z,97965.38
2022-12-04T08:03:49.431Z,97959.84
2022-12-04T08:06:18.142Z,97961.63
2022-12-04T08:08:44.896Z,97954.66
2022-12-04T08:11:14.006Z,97952.63
2022-12-04T08:13:40.538Z,97951.13
2022-12-04T08:16:09.287Z,97949.38
2022-12-04T08:18:36.571Z,97948.44
2022-12-04T08:21:08.322Z,97952.25
2022-12-04T08:23:35.602Z,97949.91
2022-12-04T08:26:02.840Z,97950.81
2022-12-04T08:28:29.894Z,97950.91
2022-12-04T08:31:02.782Z,97952.00
2022-12-04T08:33:29.411Z,97957.44
2022-12-04T08:35:56.113Z,97951.00
2022-12-04T08:38:26.301Z,97951.50
2022-12-04T08:40:53.462Z,97960.25
2022-12-04T08:43:20.093Z,97964.78
2022-12-04T08:45:58.256Z,97962.34
2022-12-04T08:48:25.114Z,97966.06
2022-12-04T08:50:51.817Z,97961.31
2022-12-04T08:53:18.501Z,97974.97
2022-12-04T08:55:45.069Z,97975.72
2022-12-04T08:58:11.679Z,97976.66
2022-12-04T09:00:38.280Z,97982.59
2022-12-04T09:03:05.070Z,97978.41
2022-12-04T09:05:31.749Z,97976.03
2022-12-04T09:07:58.506Z,97986.38
2022-12-04T09:10:25.052Z,97994.34
2022-12-04T09:12:51.616Z,98000.19
2022-12-04T09:15:21.401Z,97997.41
2022-12-04T09:17:47.988Z,97998.78
2022-12-04T09:20:15.329Z,97992.19
2022-12-04T09:23:04.150Z,97995.09
2022-12-04T09:25:38.668Z,97996.63
2022-12-04T09:28:05.251Z,97994.13
2022-12-04T09:30:32.631Z,97991.06
2022-12-04T09:32:59.551Z,97980.63
2022-12-04T09:35:30.063Z,97970.91
2022-12-04T09:37:59.292Z,97961.31
2022-12-04T09:40:38.026Z,97955.41
2022-12-04T09:43:17.352Z,97951.88
2022-12-04T09:45:51.675Z,97944.53
2022-12-04T09:48:19.378Z,97941.53
2022-12-04T09:50:47.765Z,97937.50
2022-12-04T09:53:31.258Z,97922.34
2022-12-04T09:55:58.006Z,97910.78
2022-12-04T09:59:14.444Z,97909.25
2022-12-04T10:02:12.208Z,97907.91
2022-12-04T10:04:39.185Z,97907.25
2022-12-04T10:07:32.273Z,97906.19
2022-12-04T10:10:23.999Z,97891.38
2022-12-04T10:13:08.674Z,97898.63
2022-12-04T10:16:03.616Z,97893.59
2022-12-04T10:18:43.373Z,97897.53
2022-12-04T10:21:21.071Z,97888.34
2022-12-04T10:23:55.701Z,97886.34
2022-12-04T10:26:28.980Z,97887.84
2022-12-04T10:29:03.220Z,97881.13
2022-12-04T10:31:30.591Z,97888.81
2022-12-04T10:34:02.415Z,97888.31
2022-12-04T10:36:42.582Z,97892.25
2022-12-04T10:39:33.244Z,97902.63
2022-12-04T10:42:03.582Z,97904.31
2022-12-04T10:44:30.554Z,97911.44
2022-12-04T10:47:00.051Z,97906.75
2022-12-04T10:49:29.115Z,97913.25
2022-12-04T10:51:55.796Z,97904.56
2022-12-04T10:54:27.454Z,97913.56
2022-12-04T10:56:59.208Z,97900.47
2022-12-04T10:59:27.419Z,97907.78
2022-12-04T11:02:04.795Z,97907.66
2022-12-04T11:04:34.435Z,97903.09
2022-12-04T11:07:06.798Z,97899.97
2022-12-04T11:09:33.978Z,97894.44
2022-12-04T11:12:17.860Z,97890.81
2022-12-04T11:14:47.121Z,97886.81
2022-12-04T11:17:19.362Z,97883.84
2022-12-04T11:19:46.198Z,97888.28
2022-12-04T11:22:15.891Z,97884.09
2022-12-04T11:24:43.187Z,97879.94
2022-12-04T11:27:36.570Z,97881.66
2022-12-04T11:30:14.554Z,97882.03
2022-12-04T11:32:44.601Z,97873.00
2022-12-04T11:35:17.715Z,97875.31
2022-12-04T11:37:53.356Z,97865.47
2022-12-04T11:40:20.757Z,97864.41
2022-12-04T11:42:59.571Z,97873.13
2022-12-04T11:45:26.187Z,97886.34
2022-12-04T11:48:02.122Z,97890.09
2022-12-04T11:50:47.093Z,97893.34
2022-12-04T11:53:55.730Z,97897.69
2022-12-04T11:56:30.197Z,97892.00
2022-12-04T11:59:24.144Z,97899.00
2022-12-04T12:01:59.839Z,97888.03
2022-12-04T12:04:48.121Z,97876.47
2022-12-04T12:07:34.623Z,97860.31
2022-12-04T12:10:30.480Z,97838.88
2022-12-04T12:13:23.975Z,97855.31
2022-12-04T12:16:09.409Z,97853.00
2022-12-04T12:19:00.579Z,97859.47
2022-12-04T12:21:29.548Z,97858.63
2022-12-04T12:24:15.007Z,97856.59
2022-12-04T12:26:50.774Z,97848.28
2022-12-04T12:29:50.965Z,97835.84
2022-12-04T12:32:28.456Z,97830.84
2022-12-04T12:34:55.252Z,97826.09
2022-12-04T12:37:54.658Z,97833.75
2022-12-04T12:40:43.219Z,97831.84
2022-12-04T12:43:09.760Z,97840.16
2022-12-04T12:45:55.713Z,97848.88
2022-12-04T12:49:05.896Z,97839.47
2022-12-04T12:51:41.640Z,97835.94
2022-12-04T12:54:30.258Z,97835.09
2022-12-04T12:57:03.210Z,97831.25
2022-12-04T12:59:30.159Z,97843.38
2022-12-04T13:02:06.099Z,97838.63
2022-12-04T13:04:38.975Z,97836.00
2022-12-04T13:07:25.113Z,97825.31
2022-12-04T13:10:02.070Z,97818.50
2022-12-04T13:12:28.687Z,97826.47
2022-12-04T13:14:56.387Z,97835.94
2022-12-04T13:17:25.925Z,97837.13
2022-12-04T13:19:55.248Z,97844.81
2022-12-04T13:22:50.465Z,97836.91
2022-12-04T13:25:28.725Z,97834.38
2022-12-04T13:28:08.266Z,97840.81
2022-12-04T13:31:06.420Z,97850.59
2022-12-04T13:33:52.438Z,97863.50
2022-12-04T13:36:28.230Z,97852.97
2022-12-04T13:39:19.453Z,97849.66
2022-12-04T13:41:46.258Z,97846.38
2022-12-04T13:44:24.260Z,97844.41
2022-12-04T13:47:02.579Z,97849.59
2022-12-04T13:49:35.536Z,97841.34
2022-12-04T13:52:05.699Z,97849.47
2022-12-04T13:54:36.971Z,97840.75
2022-12-04T13:57:16.448Z,97839.78
2022-12-04T13:59:43.705Z,97847.94
2022-12-04T14:02:35.119Z,97843.91
2022-12-04T14:05:03.441Z,97845.28
2022-12-04T14:07:42.667Z,97844.59
2022-12-04T14:10:15.373Z,97838.75
2022-12-04T14:12:49.226Z,97826.28
2022-12-04T14:15:24.283Z,97808.22
2022-12-04T14:18:27.819Z,97803.75
2022-12-04T14:21:01.030Z,97789.28
2022-12-04T14:23:38.084Z,97803.63
2022-12-04T14:26:05.374Z,97812.69
2022-12-04T14:28:34.836Z,97835.63
2022-12-04T14:31:08.286Z,97838.28
2022-12-04T14:33:39.349Z,97841.44
2022-12-04T14:36:09.937Z,97836.63
2022-12-04T14:38:36.757Z,97844.59
2022-12-04T14:41:04.188Z,97849.63
2022-12-04T14:43:39.404Z,97850.22
2022-12-04T14:46:13.113Z,97844.22
2022-12-04T14:49:16.219Z,97839.31
2022-12-04T14:51:52.345Z,97840.44
2022-12-04T14:54:28.222Z,97848.13
2022-12-04T14:57:11.983Z,97845.88
2022-12-04T14:59:49.942Z,97846.88
2022-12-04T15:02:22.266Z,97846.38
2022-12-04T15:04:50.280Z,97857.69
2022-12-04T15:07:22.254Z,97856.53
2022-12-04T15:10:15.838Z,97856.13
2022-12-04T15:12:53.947Z,97862.75
2022-12-04T15:15:25.401Z,97863.06
2022-12-04T15:18:03.566Z,97872.13
2022-12-04T15:20:38.883Z,97858.50
2022-12-04T15:23:05.887Z,97863.44
2022-12-04T15:25:37.394Z,97869.81
2022-12-04T15:28:17.400Z,97882.88
2022-12-04T15:30:44.992Z,97879.03
2022-12-04T15:33:20.979Z,97888.47
2022-12-04T15:35:53.261Z,97880.00
2022-12-04T15:38:21.927Z,97877.50
2022-12-04T15:40:59.752Z,97871.09
2022-12-04T15:43:32.426Z,97867.63
2022-12-04T15:45:59.984Z,97862.53
2022-12-04T15:48:30.545Z,97865.25
2022-12-04T15:51:01.747Z,97872.56
2022-12-04T15:53:32.220Z,97860.16
2022-12-04T15:56:02.787Z,97846.47
2022-12-04T15:58:33.466Z,97854.09
2022-12-04T16:01:11.439Z,97854.53
2022-12-04T16:03:41.501Z,97856.22
2022-12-04T16:06:31.630Z,97857.75
2022-12-04T16:09:00.040Z,97856.78
2022-12-04T16:11:29.677Z,97856.19
2022-12-04T16:14:05.213Z,97855.13
2022-12-04T16:16:31.905Z,97849.59
2022-12-04T16:18:58.992Z,97845.91
2022-12-04T16:21:30.644Z,97848.38
2022-12-04T16:24:07.605Z,97855.44
2022-12-04T16:26:34.180Z,97848.06
2022-12-04T16:29:00.918Z,97839.97
2022-12-04T16:31:28.021Z,97837.78
2022-12-04T16:33:54.844Z,97834.75
2022-12-04T16:36:21.453Z,97838.44
2022-12-04T16:38:47.990Z,97842.75
2022-12-04T16:41:16.340Z,97830.09
2022-12-04T16:43:43.049Z,97833.38
2022-12-04T16:46:13.685Z,97829.31
2022-12-04T16:48:41.713Z,97839.59
2022-12-04T16:51:16.606Z,97827.72
2022-12-04T16:53:43.593Z,97827.16
2022-12-04T16:56:10.539Z,97826.41
2022-12-04T16:58:37.916Z,97829.28
2022-12-04T17:01:07.142Z,97808.44
2022-12-04T17:03:34.706Z,97799.59
2022-12-04T17:06:06.043Z,97814.66
2022-12-04T17:08:33.747Z,97817.63
2022-12-04T17:11:00.692Z,97821.66
2022-12-04T17:13:30.257Z,97827.84
2022-12-04T17:15:59.644Z,97825.13
2022-12-04T17:18:28.699Z,97825.88
2022-12-04T17:20:57.863Z,97840.97
2022-12-04T17:23:27.325Z,97842.50
2022-12-04T17:25:53.947Z,97843.31
2022-12-04T17:28:20.568Z,97846.59
2022-12-04T17:30:47.208Z,97849.97
2022-12-04T17:33:13.828Z,97854.84
2022-12-04T17:35:44.181Z,97864.47
2022-12-04T17:38:10.766Z,97861.84
2022-12-04T17:40:37.425Z,97871.41
2022-12-04T17:43:04.217Z,97865.97
2022-12-04T17:45:30.866Z,97868.94
2022-12-04T17:47:59.345Z,97874.75
2022-12-04T17:50:25.998Z,97870.97
2022-12-04T17:52:52.720Z,97866.72
2022-12-04T17:55:19.328Z,97872.25
2022-12-04T17:57:45.863Z,97869.34
2022-12-04T18:00:12.684Z,97862.09
2022-12-04T18:02:41.531Z,97861.66
2022-12-04T18:05:09.152Z,97858.50
2022-12-04T18:07:36.407Z,97856.53
2022-12-04T18:10:03.184Z,97863.59
2022-12-04T18:12:29.702Z,97862.25
2022-12-04T18:14:56.307Z,97872.31
2022-12-04T18:17:22.930Z,97865.41
2022-12-04T18:19:49.484Z,97868.84
2022-12-04T18:22:16.105Z,97870.84
2022-12-04T18:24:42.672Z,97868.47
2022-12-04T18:27:09.823Z,97869.59
2022-12-04T18:29:36.782Z,97866.34
2022-12-04T18:32:03.446Z,97870.13
2022-12-04T18:34:30.423Z,97888.84
2022-12-04T18:36:57.147Z,97874.53
2022-12-04T18:39:25.365Z,97877.38
2022-12-04T18:41:54.275Z,97888.63
2022-12-04T18:44:20.912Z,97883.56
2022-12-04T18:46:47.577Z,97876.81
2022-12-04T18:49:14.427Z,97878.22
2022-12-04T18:51:47.021Z,97886.25
2022-12-04T18:54:20.943Z,97886.06
2022-12-04T18:56:47.880Z,97882.81
2022-12-04T18:59:17.870Z,97884.78
2022-12-04T19:01:46.788Z,97903.00
2022-12-04T19:04:14.377Z,97889.69
2022-12-04T19:06:43.523Z,97891.53
2022-12-04T19:09:13.202Z,97901.88
2022-12-04T19:11:40.437Z,97904.75
2022-12-04T19:14:16.193Z,97911.88
2022-12-04T19:16:48.013Z,97900.97
2022-12-04T19:19:17.496Z,97912.28
2022-12-04T19:21:44.424Z,97912.13
2022-12-04T19:24:11.233Z,97910.34
2022-12-04T19:26:38.295Z,97908.63
2022-12-04T19:29:06.246Z,97920.78
2022-12-04T19:31:34.928Z,97916.75
2022-12-04T19:34:02.783Z,97927.75
2022-12-04T19:36:30.510Z,97928.00
2022-12-04T19:38:58.082Z,97936.72
2022-12-04T19:41:30.118Z,97939.56
2022-12-04T19:43:58.566Z,97947.22
2022-12-04T19:46:26.938Z,97937.13
2022-12-04T19:48:56.798Z,97946.94
2022-12-04T19:51:23.995Z,97948.09
2022-12-04T19:53:50.840Z,97947.75
2022-12-04T19:56:20.420Z,97952.66
2022-12-04T19:58:47.369Z,97960.13
2022-12-04T20:01:16.463Z,97954.03
2022-12-04T20:03:43.169Z,97958.25
2022-12-04T20:06:15.550Z,97959.66
2022-12-04T20:08:42.766Z,97958.53
2022-12-04T20:11:12.167Z,97967.13
2022-12-04T20:13:39.702Z,97959.59
2022-12-04T20:16:09.315Z,97962.28
2022-12-04T20:18:39.698Z,97958.38
2022-12-04T20:21:10.975Z,97953.78
2022-12-04T20:23:38.763Z,97961.59
2022-12-04T20:26:07.039Z,97964.84
2022-12-04T20:28:33.555Z,97963.13
2022-12-04T20:31:00.294Z,97965.22
2022-12-04T20:33:26.959Z,97966.88
2022-12-04T20:35:55.426Z,97971.19
2022-12-04T20:38:22.054Z,97971.00
2022-12-04T20:40:48.766Z,97970.09
2022-12-04T20:43:15.366Z,97969.78
2022-12-04T20:45:42.028Z,97968.31
2022-12-04T20:48:08.747Z,97967.72
2022-12-04T20:50:35.303Z,97971.38
2022-12-04T20:53:01.794Z,97961.88
2022-12-04T20:55:28.519Z,97956.91
2022-12-04T20:57:57.163Z,97963.69
2022-12-04T21:00:24.222Z,97966.16
2022-12-04T21:02:51.009Z,97962.53
2022-12-04T21:05:17.625Z,97969.50
2022-12-04T21:07:44.306Z,97966.97
2022-12-04T21:10:11.070Z,97974.84
2022-12-04T21:12:56.295Z,97976.00
2022-12-04T21:15:41.629Z,97976.50
2022-12-04T21:18:08.305Z,97973.94
2022-12-04T21:20:35.161Z,97969.59
2022-12-04T21:23:02.863Z,97985.41
2022-12-04T21:25:29.755Z,97979.38
2022-12-04T21:27:56.521Z,97984.28
2022-12-04T21:30:23.576Z,97977.16
2022-12-04T21:32:50.133Z,97969.66
2022-12-04T21:35:17.635Z,97973.09
2022-12-04T21:37:47.529Z,97973.50
2022-12-04T21:40:14.156Z,97978.66
2022-12-04T21:42:41.161Z,97982.91
2022-12-04T21:45:10.185Z,97984.38
2022-12-04T21:47:39.547Z,97983.88
2022-12-04T21:50:07.108Z,97986.25
2022-12-04T21:52:33.659Z,97984.88
2022-12-04T21:55:00.309Z,97987.06
2022-12-04T21:57:28.371Z,97991.06
2022-12-04T21:59:56.094Z,97986.53
2022-12-04T22:02:24.341Z,97989.09
2022-12-04T22:04:50.957Z,97993.09
2022-12-04T22:07:18.479Z,97987.66
2022-12-04T22:09:46.056Z,98000.69
2022-12-04T22:12:41.375Z,98000.34
2022-12-04T22:14:59.221Z,97991.75
2022-12-04T22:17:29.341Z,97996.28
2022-12-04T22:19:56.167Z,97999.75
2022-12-04T22:22:23.032Z,98003.34
2022-12-04T22:24:49.613Z,98001.81
2022-12-04T22:27:16.268Z,98006.06
2022-12-04T22:29:51.089Z,98010.47
2022-12-04T22:32:19.019Z,98015.66
2022-12-04T22:34:48.651Z,98023.78
2022-12-04T22:37:15.222Z,98035.19
2022-12-04T22:39:41.743Z,98034.22
2022-12-04T22:42:08.551Z,98026.13
2022-12-04T22:44:35.151Z,98029.47
2022-12-04T22:47:01.872Z,98023.94
2022-12-04T22:49:28.610Z,98036.00
2022-12-04T22:51:55.247Z,98033.66
2022-12-04T22:54:21.909Z,98034.53
2022-12-04T22:56:48.587Z,98030.34
2022-12-04T22:59:15.805Z,98029.97
2022-12-04T23:01:42.775Z,98025.97
2022-12-04T23:04:10.082Z,98035.56
2022-12-04T23:06:37.059Z,98030.19
2022-12-04T23:09:15.640Z,98035.91
2022-12-04T23:11:43.187Z,98030.91
2022-12-04T23:14:14.376Z,98024.72
2022-12-04T23:16:41.637Z,98026.16
2022-12-04T23:19:10.697Z,98029.91
2022-12-04T23:21:37.219Z,98029.09
2022-12-04T23:24:04.382Z,98031.47
2022-12-04T23:26:37.060Z,98037.69
2022-12-04T23:29:17.867Z,98037.19
2022-12-04T23:31:51.545Z,98040.91
2022-12-04T23:34:18.280Z,98042.81
2022-12-04T23:36:44.784Z,98044.63
2022-12-04T23:39:11.388Z,98055.47
2022-12-04T23:41:37.992Z,98062.69
2022-12-04T23:44:04.692Z,98072.69
2022-12-04T23:46:32.494Z,98081.63
2022-12-04T23:49:00.236Z,98084.91
2022-12-04T23:51:27.462Z,98080.63
2022-12-04T23:53:54.130Z,98091.91
2022-12-04T23:56:23.722Z,98102.53
2022-12-04T23:58:51.940Z,98095.72
